createdAt,value
2019-04-26T00:01:07.718Z,28.90
2019-04-26T00:03:41.234Z,29.00
2019-04-26T00:06:14.879Z,29.00
2019-04-26T00:08:48.753Z,29.00
2019-04-26T00:11:22.466Z,29.10
2019-04-26T00:13:55.932Z,29.20
2019-04-26T00:16:29.851Z,29.30
2019-04-26T00:19:02.298Z,29.30
2019-04-26T00:21:34.830Z,29.40
2019-04-26T00:24:08.318Z,29.40
2019-04-26T00:26:40.888Z,29.40
2019-04-26T00:29:13.013Z,29.50
2019-04-26T00:31:45.460Z,29.50
2019-04-26T00:34:18.040Z,29.50
2019-04-26T00:36:50.107Z,29.50
2019-04-26T00:39:24.833Z,29.60
2019-04-26T00:41:56.613Z,29.60
2019-04-26T00:44:28.831Z,29.70
2019-04-26T00:47:04.691Z,29.70
2019-04-26T00:49:43.807Z,29.80
2019-04-26T00:52:15.749Z,29.90
2019-04-26T00:54:48.502Z,29.90
2019-04-26T00:57:24.867Z,30.00
2019-04-26T01:00:04.178Z,30.10
2019-04-26T01:02:39.002Z,30.20
2019-04-26T01:05:11.353Z,30.20
2019-04-26T01:07:44.759Z,30.30
2019-04-26T01:10:19.667Z,30.30
2019-04-26T01:12:52.231Z,30.40
2019-04-26T01:15:24.775Z,30.50
2019-04-26T01:17:57.255Z,30.50
2019-04-26T01:20:32.170Z,30.50
2019-04-26T01:23:07.931Z,30.60
2019-04-26T01:25:43.880Z,30.60
2019-04-26T01:28:19.755Z,30.60
2019-04-26T01:30:53.603Z,30.70
2019-04-26T01:33:26.997Z,30.70
2019-04-26T01:36:12.444Z,30.70
2019-04-26T01:38:34.566Z,30.80
2019-04-26T01:41:09.706Z,30.90
2019-04-26T01:43:44.494Z,30.90
2019-04-26T01:46:22.959Z,30.90
2019-04-26T01:48:59.229Z,30.90
2019-04-26T01:51:34.960Z,31.00
2019-04-26T01:54:08.174Z,31.00
2019-04-26T01:56:40.509Z,31.10
2019-04-26T01:59:16.803Z,31.20
2019-04-26T02:01:50.395Z,31.20
2019-04-26T02:04:32.075Z,31.30
2019-04-26T02:07:05.051Z,31.40
2019-04-26T02:09:56.205Z,31.50
2019-04-26T02:12:29.286Z,31.50
2019-04-26T02:15:02.180Z,31.60
2019-04-26T02:17:34.280Z,31.60
2019-04-26T02:20:08.629Z,31.70
2019-04-26T02:22:43.396Z,31.70
2019-04-26T02:25:16.131Z,31.70
2019-04-26T02:27:48.313Z,31.80
2019-04-26T02:30:20.329Z,31.90
2019-04-26T02:32:53.045Z,32.00
2019-04-26T02:35:28.566Z,32.00
2019-04-26T02:38:00.400Z,32.10
2019-04-26T02:40:34.731Z,32.20
2019-04-26T02:43:07.098Z,32.30
2019-04-26T02:45:44.118Z,32.30
2019-04-26T02:48:19.356Z,32.40
2019-04-26T02:50:56.544Z,32.60
2019-04-26T02:53:33.666Z,32.70
2019-04-26T02:56:15.188Z,32.80
2019-04-26T02:58:50.947Z,32.90
2019-04-26T03:01:23.591Z,32.90
2019-04-26T03:03:56.274Z,32.90
2019-04-26T03:06:34.312Z,32.90
2019-04-26T03:09:08.865Z,32.90
2019-04-26T03:11:48.533Z,32.90
2019-04-26T03:14:21.768Z,32.90
2019-04-26T03:17:00.709Z,33.00
2019-04-26T03:19:39.444Z,33.00
2019-04-26T03:22:15.688Z,33.00
2019-04-26T03:24:51.083Z,33.10
2019-04-26T03:27:44.516Z,33.10
2019-04-26T03:30:22.741Z,33.20
2019-04-26T03:32:57.390Z,33.30
2019-04-26T03:35:43.915Z,33.40
2019-04-26T03:38:11.864Z,33.40
2019-04-26T03:40:48.576Z,33.50
2019-04-26T03:43:23.950Z,33.50
2019-04-26T03:45:59.369Z,33.60
2019-04-26T03:48:35.903Z,33.70
2019-04-26T03:51:17.415Z,33.70
2019-04-26T03:54:02.225Z,33.80
2019-04-26T03:56:57.283Z,33.90
2019-04-26T03:59:46.185Z,34.00
2019-04-26T04:02:23.161Z,34.10
2019-04-26T04:05:00.122Z,34.20
2019-04-26T04:07:53.439Z,34.30
2019-04-26T04:10:29.856Z,34.40
2019-04-26T04:13:05.730Z,34.50
2019-04-26T04:15:42.578Z,34.50
2019-04-26T04:18:20.720Z,34.50
2019-04-26T04:20:57.730Z,34.50
2019-04-26T04:23:33.071Z,34.50
2019-04-26T04:26:09.229Z,34.60
2019-04-26T04:28:46.515Z,34.70
2019-04-26T04:31:23.980Z,34.90
2019-04-26T04:34:17.404Z,35.00
2019-04-26T04:36:53.650Z,35.20
2019-04-26T04:39:30.920Z,35.30
2019-04-26T04:42:07.995Z,35.50
2019-04-26T04:44:45.960Z,35.60
2019-04-26T04:47:25.342Z,35.70
2019-04-26T04:50:01.612Z,35.80
2019-04-26T04:52:37.772Z,35.90
2019-04-26T04:55:13.272Z,35.90
2019-04-26T04:57:50.174Z,36.00
2019-04-26T05:00:27.793Z,36.10
2019-04-26T05:03:06.315Z,36.20
2019-04-26T05:05:43.619Z,36.30
2019-04-26T05:08:29.087Z,36.40
2019-04-26T05:11:07.643Z,36.60
2019-04-26T05:13:50.021Z,36.70
2019-04-26T05:16:53.316Z,36.90
2019-04-26T05:19:30.297Z,37.00
2019-04-26T05:22:05.950Z,37.10
2019-04-26T05:24:59.433Z,37.20
2019-04-26T05:27:37.613Z,37.30
2019-04-26T05:30:12.710Z,37.40
2019-04-26T05:32:48.690Z,37.50
2019-04-26T05:35:25.735Z,37.60
2019-04-26T05:38:01.202Z,37.70
2019-04-26T05:40:38.464Z,37.80
2019-04-26T05:43:15.184Z,37.90
2019-04-26T05:45:52.196Z,37.90
2019-04-26T05:48:29.070Z,38.00
2019-04-26T05:51:05.948Z,38.00
2019-04-26T05:53:42.688Z,38.00
2019-04-26T05:56:41.826Z,38.10
2019-04-26T05:59:18.392Z,38.20
2019-04-26T06:02:13.360Z,38.30
2019-04-26T06:04:51.972Z,38.30
2019-04-26T06:07:30.037Z,38.30
2019-04-26T06:10:05.202Z,38.40
2019-04-26T06:12:42.129Z,38.50
2019-04-26T06:15:19.151Z,38.60
2019-04-26T06:17:55.244Z,38.80
2019-04-26T06:20:30.731Z,39.00
2019-04-26T06:23:06.567Z,39.10
2019-04-26T06:25:43.593Z,39.20
2019-04-26T06:28:20.259Z,39.30
2019-04-26T06:30:55.526Z,39.30
2019-04-26T06:33:31.129Z,39.20
2019-04-26T06:36:10.696Z,39.20
2019-04-26T06:38:47.791Z,39.20
2019-04-26T06:41:23.832Z,39.20
2019-04-26T06:44:01.339Z,39.30
2019-04-26T06:46:39.250Z,39.30
2019-04-26T06:49:14.189Z,39.30
2019-04-26T06:51:49.464Z,39.40
2019-04-26T06:54:25.231Z,39.60
2019-04-26T06:57:08.812Z,39.60
2019-04-26T06:59:39.126Z,39.60
2019-04-26T07:02:14.579Z,39.70
2019-04-26T07:04:51.197Z,39.80
2019-04-26T07:10:30.329Z,39.70
2019-04-26T07:13:07.832Z,39.70
2019-04-26T07:15:46.410Z,39.70
2019-04-26T07:18:22.278Z,39.80
2019-04-26T07:21:00.606Z,39.90
2019-04-26T07:23:46.098Z,40.00
2019-04-26T07:26:22.232Z,40.20
2019-04-26T07:28:57.683Z,40.30
2019-04-26T07:31:51.283Z,40.40
2019-04-26T07:34:27.993Z,40.30
2019-04-26T07:37:04.576Z,40.10
2019-04-26T07:39:41.407Z,39.90
2019-04-26T07:42:18.360Z,39.70
2019-04-26T07:44:55.772Z,39.50
2019-04-26T07:47:31.731Z,39.40
2019-04-26T07:50:11.900Z,39.20
2019-04-26T07:52:47.807Z,39.10
2019-04-26T07:55:27.488Z,39.00
2019-04-26T07:58:04.966Z,38.90
2019-04-26T08:01:00.995Z,38.70
2019-04-26T08:03:37.966Z,38.60
2019-04-26T08:06:13.766Z,38.40
2019-04-26T08:08:50.615Z,38.30
2019-04-26T08:11:26.076Z,38.30
2019-04-26T08:14:01.537Z,38.20
2019-04-26T08:16:37.941Z,38.20
2019-04-26T08:19:14.696Z,38.20
2019-04-26T08:21:50.303Z,38.20
2019-04-26T08:24:28.278Z,38.10
2019-04-26T08:27:13.691Z,38.10
2019-04-26T08:29:41.297Z,38.00
2019-04-26T08:32:17.819Z,38.00
2019-04-26T08:35:17.236Z,37.90
2019-04-26T08:37:49.722Z,37.80
2019-04-26T08:40:31.063Z,37.80
2019-04-26T08:43:01.254Z,37.70
2019-04-26T08:45:40.459Z,37.60
2019-04-26T08:48:34.979Z,37.60
2019-04-26T08:51:10.881Z,37.50
2019-04-26T08:53:46.455Z,37.50
2019-04-26T08:56:22.592Z,37.50
2019-04-26T08:58:58.363Z,37.50
2019-04-26T09:01:36.159Z,37.50
2019-04-26T09:04:11.916Z,37.60
2019-04-26T09:07:06.821Z,37.50
2019-04-26T09:09:42.833Z,37.50
2019-04-26T09:12:23.356Z,37.50
2019-04-26T09:15:09.100Z,37.50
2019-04-26T09:17:41.638Z,37.50
2019-04-26T09:20:27.767Z,37.40
2019-04-26T09:22:51.064Z,37.30
2019-04-26T09:28:26.176Z,37.30
2019-04-26T09:30:59.826Z,37.30
2019-04-26T09:33:35.890Z,37.20
2019-04-26T09:36:07.743Z,37.20
2019-04-26T09:38:41.169Z,37.20
2019-04-26T09:41:13.217Z,37.10
2019-04-26T09:43:58.768Z,37.00
2019-04-26T09:46:34.420Z,37.00
2019-04-26T09:49:19.951Z,36.90
2019-04-26T09:51:52.506Z,36.90
2019-04-26T09:54:24.423Z,36.80
2019-04-26T09:56:57.545Z,36.80
2019-04-26T09:59:29.710Z,36.80
2019-04-26T10:02:05.280Z,36.70
2019-04-26T10:04:37.764Z,36.70
2019-04-26T10:07:10.018Z,36.70
2019-04-26T10:09:42.302Z,36.60
2019-04-26T10:12:16.570Z,36.60
2019-04-26T10:14:58.150Z,36.60
2019-04-26T10:17:31.453Z,36.60
2019-04-26T10:20:04.118Z,36.50
2019-04-26T10:22:41.304Z,36.50
2019-04-26T10:25:16.552Z,36.40
2019-04-26T10:27:47.697Z,36.40
2019-04-26T10:30:19.924Z,36.40
2019-04-26T10:32:51.449Z,36.30
2019-04-26T10:35:23.531Z,36.30
2019-04-26T10:37:56.651Z,36.20
2019-04-26T10:40:35.418Z,36.20
2019-04-26T10:43:02.631Z,36.10
2019-04-26T10:45:34.736Z,36.00
2019-04-26T10:48:09.659Z,36.00
2019-04-26T10:50:41.910Z,35.90
2019-04-26T10:53:16.114Z,35.90
2019-04-26T10:55:50.172Z,35.90
2019-04-26T10:58:23.696Z,35.90
2019-04-26T11:00:57.258Z,35.80
2019-04-26T11:03:29.337Z,35.80
2019-04-26T11:06:02.312Z,35.80
2019-04-26T11:08:34.249Z,35.70
2019-04-26T11:11:09.711Z,35.70
2019-04-26T11:13:41.588Z,35.70
2019-04-26T11:16:14.803Z,35.60
2019-04-26T11:18:46.930Z,35.60
2019-04-26T11:21:20.849Z,35.50
2019-04-26T11:23:53.420Z,35.40
2019-04-26T11:26:25.340Z,35.30
2019-04-26T11:28:58.054Z,35.30
2019-04-26T11:31:30.742Z,35.20
2019-04-26T11:34:05.388Z,35.10
2019-04-26T11:36:37.566Z,35.00
2019-04-26T11:39:14.664Z,34.90
2019-04-26T11:41:47.442Z,34.80
2019-04-26T11:44:23.429Z,34.80
2019-04-26T11:46:53.699Z,34.70
2019-04-26T11:49:27.598Z,34.60
2019-04-26T11:52:04.080Z,34.50
2019-04-26T11:54:36.371Z,34.40
2019-04-26T11:57:12.127Z,34.30
2019-04-26T11:59:43.024Z,34.20
2019-04-26T12:02:16.114Z,34.20
2019-04-26T12:04:53.877Z,34.20
2019-04-26T12:07:25.319Z,34.10
2019-04-26T12:09:58.858Z,34.00
2019-04-26T12:12:30.969Z,34.00
2019-04-26T12:15:04.050Z,33.90
2019-04-26T12:17:36.912Z,33.90
2019-04-26T12:20:11.945Z,33.80
2019-04-26T12:22:44.953Z,33.70
2019-04-26T12:25:17.201Z,33.70
2019-04-26T12:27:53.236Z,33.60
2019-04-26T12:30:42.095Z,33.60
2019-04-26T12:33:14.887Z,33.50
2019-04-26T12:35:47.108Z,33.40
2019-04-26T12:38:19.649Z,33.40
2019-04-26T12:40:51.688Z,33.30
2019-04-26T12:43:24.556Z,33.30
2019-04-26T12:46:02.561Z,33.30
2019-04-26T12:48:34.551Z,33.30
2019-04-26T12:51:08.248Z,33.30
2019-04-26T12:53:41.054Z,33.20
2019-04-26T12:56:13.224Z,33.20
2019-04-26T12:58:45.759Z,33.10
2019-04-26T13:01:19.982Z,33.10
2019-04-26T13:03:53.649Z,33.10
2019-04-26T13:06:27.809Z,33.10
2019-04-26T13:08:59.690Z,33.10
2019-04-26T13:11:31.607Z,33.00
2019-04-26T13:14:05.629Z,33.00
2019-04-26T13:16:42.693Z,33.00
2019-04-26T13:19:15.992Z,32.90
2019-04-26T13:21:51.309Z,32.90
2019-04-26T13:24:23.608Z,32.90
2019-04-26T13:26:55.961Z,32.80
2019-04-26T13:29:31.119Z,32.80
2019-04-26T13:32:02.046Z,32.80
2019-04-26T13:34:53.533Z,32.70
2019-04-26T13:37:25.936Z,32.70
2019-04-26T13:39:58.329Z,32.60
2019-04-26T13:42:30.776Z,32.50
2019-04-26T13:45:04.339Z,32.50
2019-04-26T13:47:37.768Z,32.50
2019-04-26T13:50:14.089Z,32.40
2019-04-26T13:52:46.914Z,32.40
2019-04-26T13:55:19.403Z,32.40
2019-04-26T13:57:51.653Z,32.40
2019-04-26T14:00:25.550Z,32.40
2019-04-26T14:02:57.690Z,32.40
2019-04-26T14:05:29.955Z,32.40
2019-04-26T14:08:04.078Z,32.30
2019-04-26T14:10:36.266Z,32.30
2019-04-26T14:13:08.611Z,32.20
2019-04-26T14:15:44.052Z,32.20
2019-04-26T14:18:14.721Z,32.10
2019-04-26T14:20:46.867Z,32.00
2019-04-26T14:23:20.228Z,31.90
2019-04-26T14:25:55.413Z,31.80
2019-04-26T14:28:26.142Z,31.80
2019-04-26T14:30:58.880Z,31.70
2019-04-26T14:33:32.069Z,31.60
2019-04-26T14:36:17.133Z,31.60
2019-04-26T14:38:43.054Z,31.50
2019-04-26T14:41:22.015Z,31.40
2019-04-26T14:43:52.655Z,31.30
2019-04-26T14:46:23.146Z,31.30
2019-04-26T14:49:02.005Z,31.20
2019-04-26T14:51:29.705Z,31.10
2019-04-26T14:54:03.120Z,31.10
2019-04-26T14:56:35.209Z,31.00
2019-04-26T14:59:09.917Z,30.90
2019-04-26T15:01:42.452Z,30.90
2019-04-26T15:04:15.840Z,30.80
2019-04-26T15:06:53.452Z,30.80
2019-04-26T15:09:36.592Z,30.70
2019-04-26T15:12:14.144Z,30.70
2019-04-26T15:14:43.729Z,30.60
2019-04-26T15:17:19.465Z,30.60
2019-04-26T15:19:56.915Z,30.60
2019-04-26T15:22:29.713Z,30.50
2019-04-26T15:25:20.998Z,30.50
2019-04-26T15:27:53.060Z,30.50
2019-04-26T15:30:25.179Z,30.40
2019-04-26T15:32:57.874Z,30.30
2019-04-26T15:35:32.661Z,30.30
2019-04-26T15:38:03.875Z,30.30
2019-04-26T15:40:38.271Z,30.20
2019-04-26T15:43:14.833Z,30.20
2019-04-26T15:45:47.622Z,30.20
2019-04-26T15:48:22.667Z,30.20
2019-04-26T15:50:55.740Z,30.10
2019-04-26T15:53:27.771Z,30.10
2019-04-26T15:56:02.463Z,30.10
2019-04-26T15:58:38.571Z,30.10
2019-04-26T16:01:10.883Z,30.10
2019-04-26T16:03:44.640Z,30.00
2019-04-26T16:06:16.736Z,30.00
2019-04-26T16:08:49.287Z,30.00
2019-04-26T16:11:21.561Z,29.90
2019-04-26T16:13:55.402Z,29.90
2019-04-26T16:16:29.193Z,29.80
2019-04-26T16:19:02.974Z,29.80
2019-04-26T16:21:35.990Z,29.70
2019-04-26T16:24:08.033Z,29.70
2019-04-26T16:26:44.607Z,29.70
2019-04-26T16:29:18.235Z,29.60
2019-04-26T16:31:53.093Z,29.60
2019-04-26T16:34:26.513Z,29.50
2019-04-26T16:36:58.870Z,29.50
2019-04-26T16:39:38.278Z,29.40
2019-04-26T16:42:07.331Z,29.40
2019-04-26T16:44:38.271Z,29.40
2019-04-26T16:47:10.397Z,29.40
2019-04-26T16:49:46.240Z,29.30
2019-04-26T16:52:16.806Z,29.30
2019-04-26T16:54:48.857Z,29.30
2019-04-26T16:57:24.306Z,29.30
2019-04-26T16:59:59.896Z,29.30
2019-04-26T17:02:34.234Z,29.30
2019-04-26T17:05:14.574Z,29.30
2019-04-26T17:07:39.456Z,29.30
2019-04-26T17:10:12.180Z,29.30
2019-04-26T17:12:46.216Z,29.30
2019-04-26T17:15:20.995Z,29.20
2019-04-26T17:17:52.788Z,29.20
2019-04-26T17:20:25.158Z,29.20
2019-04-26T17:23:00.935Z,29.20
2019-04-26T17:25:33.921Z,29.20
2019-04-26T17:28:06.935Z,29.20
2019-04-26T17:30:42.434Z,29.20
2019-04-26T17:33:13.143Z,29.20
2019-04-26T17:35:45.367Z,29.20
2019-04-26T17:38:17.541Z,29.20
2019-04-26T17:40:50.490Z,29.20
2019-04-26T17:43:22.682Z,29.20
2019-04-26T17:45:54.928Z,29.20
2019-04-26T17:48:27.025Z,29.20
2019-04-26T17:50:59.079Z,29.20
2019-04-26T17:53:33.606Z,29.20
2019-04-26T17:56:04.772Z,29.20
2019-04-26T17:58:49.821Z,29.30
2019-04-26T18:01:12.120Z,29.20
2019-04-26T18:03:51.298Z,29.30
2019-04-26T18:06:29.014Z,29.30
2019-04-26T18:08:54.728Z,29.30
2019-04-26T18:11:25.741Z,29.30
2019-04-26T18:13:58.035Z,29.30
2019-04-26T18:16:34.415Z,29.30
2019-04-26T18:19:07.061Z,29.30
2019-04-26T18:21:40.492Z,29.30
2019-04-26T18:24:13.183Z,29.20
2019-04-26T18:26:45.130Z,29.30
2019-04-26T18:29:17.556Z,29.20
2019-04-26T18:31:49.821Z,29.20
2019-04-26T18:34:23.160Z,29.20
2019-04-26T18:37:16.035Z,29.20
2019-04-26T18:39:48.830Z,29.20
2019-04-26T18:42:27.339Z,29.10
2019-04-26T18:44:58.600Z,29.10
2019-04-26T18:47:33.126Z,29.00
2019-04-26T18:50:06.776Z,29.00
2019-04-26T18:52:41.098Z,29.00
2019-04-26T18:55:16.376Z,29.00
2019-04-26T18:57:55.883Z,29.00
2019-04-26T19:00:26.451Z,29.00
2019-04-26T19:03:00.074Z,29.00
2019-04-26T19:05:33.804Z,29.00
2019-04-26T19:08:07.592Z,28.90
2019-04-26T19:10:40.559Z,28.90
2019-04-26T19:13:14.374Z,28.80
2019-04-26T19:15:47.907Z,28.80
2019-04-26T19:18:22.093Z,28.70
2019-04-26T19:20:55.585Z,28.70
2019-04-26T19:23:29.199Z,28.70
2019-04-26T19:26:01.962Z,28.60
2019-04-26T19:28:36.007Z,28.60
2019-04-26T19:31:08.341Z,28.60
2019-04-26T19:33:40.690Z,28.60
2019-04-26T19:36:17.664Z,28.60
2019-04-26T19:38:49.806Z,28.60
2019-04-26T19:41:27.264Z,28.60
2019-04-26T19:44:01.781Z,28.60
2019-04-26T19:46:34.701Z,28.60
2019-04-26T19:49:09.223Z,28.60
2019-04-26T19:51:43.644Z,28.60
2019-04-26T19:54:38.464Z,28.60
2019-04-26T19:57:09.745Z,28.50
2019-04-26T19:59:42.405Z,28.50
2019-04-26T20:02:16.068Z,28.50
2019-04-26T20:04:48.365Z,28.50
2019-04-26T20:07:20.445Z,28.50
2019-04-26T20:09:56.348Z,28.40
2019-04-26T20:12:29.375Z,28.40
2019-04-26T20:15:02.298Z,28.40
2019-04-26T20:17:34.671Z,28.40
2019-04-26T20:20:19.235Z,28.40
2019-04-26T20:22:42.133Z,28.40
2019-04-26T20:25:14.659Z,28.40
2019-04-26T20:27:47.128Z,28.40
2019-04-26T20:30:24.410Z,28.40
2019-04-26T20:32:56.396Z,28.40
2019-04-26T20:35:31.759Z,28.40
2019-04-26T20:38:04.901Z,28.40
2019-04-26T20:40:37.184Z,28.40
2019-04-26T20:43:20.975Z,28.40
2019-04-26T20:46:07.686Z,28.40
2019-04-26T20:48:17.678Z,28.40
2019-04-26T20:50:49.846Z,28.40
2019-04-26T20:53:21.744Z,28.40
2019-04-26T20:55:54.161Z,28.40
2019-04-26T20:58:27.319Z,28.40
2019-04-26T21:01:01.360Z,28.40
2019-04-26T21:03:41.725Z,28.40
2019-04-26T21:06:07.848Z,28.40
2019-04-26T21:08:40.090Z,28.40
2019-04-26T21:11:13.721Z,28.40
2019-04-26T21:13:46.312Z,28.30
2019-04-26T21:16:18.350Z,28.30
2019-04-26T21:18:52.420Z,28.30
2019-04-26T21:21:25.179Z,28.20
2019-04-26T21:23:57.391Z,28.10
2019-04-26T21:26:32.222Z,28.00
2019-04-26T21:29:06.783Z,28.00
2019-04-26T21:31:45.504Z,27.90
2019-04-26T21:34:16.674Z,27.80
2019-04-26T21:36:50.367Z,27.80
2019-04-26T21:39:23.976Z,27.80
2019-04-26T21:41:57.876Z,27.80
2019-04-26T21:44:30.042Z,27.90
2019-04-26T21:47:03.351Z,27.90
2019-04-26T21:49:38.004Z,27.90
2019-04-26T21:52:09.317Z,27.90
2019-04-26T21:54:43.082Z,27.90
2019-04-26T21:57:18.289Z,27.90
2019-04-26T21:59:54.087Z,27.90
2019-04-26T22:02:29.610Z,27.90
2019-04-26T22:05:03.548Z,27.90
2019-04-26T22:07:39.436Z,28.00
2019-04-26T22:10:11.417Z,28.00
2019-04-26T22:12:45.091Z,28.00
2019-04-26T22:15:18.930Z,28.10
2019-04-26T22:17:54.522Z,28.10
2019-04-26T22:20:28.047Z,28.10
2019-04-26T22:23:01.453Z,28.10
2019-04-26T22:25:34.877Z,28.10
2019-04-26T22:28:07.360Z,28.10
2019-04-26T22:30:39.663Z,28.20
2019-04-26T22:33:13.187Z,28.20
2019-04-26T22:35:45.626Z,28.20
2019-04-26T22:38:23.594Z,28.20
2019-04-26T22:40:54.759Z,28.20
2019-04-26T22:43:26.644Z,28.20
2019-04-26T22:46:02.912Z,28.20
2019-04-26T22:48:35.990Z,28.20
2019-04-26T22:51:08.699Z,28.20
2019-04-26T22:53:40.665Z,28.20
2019-04-26T22:56:13.357Z,28.10
2019-04-26T22:58:45.732Z,28.10
2019-04-26T23:01:18.665Z,28.10
2019-04-26T23:03:50.784Z,28.00
2019-04-26T23:06:24.538Z,28.10
2019-04-26T23:08:56.817Z,28.10
2019-04-26T23:11:29.411Z,28.10
2019-04-26T23:14:03.437Z,28.10
2019-04-26T23:16:40.460Z,28.00
2019-04-26T23:19:15.240Z,28.10
2019-04-26T23:21:52.975Z,28.10
2019-04-26T23:24:21.432Z,28.10
2019-04-26T23:26:54.080Z,28.10
2019-04-26T23:29:26.685Z,28.10
2019-04-26T23:31:59.337Z,28.10
2019-04-26T23:34:33.344Z,28.10
2019-04-26T23:37:27.630Z,28.10
2019-04-26T23:39:59.300Z,28.10
2019-04-26T23:42:54.057Z,28.10
2019-04-26T23:45:25.482Z,28.10
2019-04-26T23:47:57.580Z,28.10
2019-04-26T23:50:30.517Z,28.20
2019-04-26T23:53:03.106Z,28.20
2019-04-26T23:55:38.104Z,28.10
2019-04-26T23:58:10.647Z,28.10
